createdAt,value
2023-05-05T00:02:09.705Z,66.10
2023-05-05T00:04:37.010Z,66.00
2023-05-05T00:07:04.261Z,65.10
2023-05-05T00:09:31.580Z,64.60
2023-05-05T00:11:58.916Z,64.50
2023-05-05T00:14:26.198Z,64.20
2023-05-05T00:16:53.501Z,63.80
2023-05-05T00:19:20.792Z,64.10
2023-05-05T00:21:48.474Z,63.70
2023-05-05T00:24:16.470Z,63.70
2023-05-05T00:26:44.315Z,63.70
2023-05-05T00:29:12.428Z,63.80
2023-05-05T00:31:42.124Z,63.80
2023-05-05T00:34:10.438Z,63.40
2023-05-05T00:36:38.946Z,63.30
2023-05-05T00:39:07.000Z,63.50
2023-05-05T00:41:34.250Z,63.90
2023-05-05T00:44:02.479Z,64.00
2023-05-05T00:46:33.696Z,64.40
2023-05-05T00:49:01.997Z,64.90
2023-05-05T00:51:32.155Z,65.60
2023-05-05T00:54:00.591Z,65.50
2023-05-05T00:56:28.093Z,66.10
2023-05-05T00:58:56.171Z,66.20
2023-05-05T01:01:24.070Z,66.70
2023-05-05T01:03:51.381Z,67.20
2023-05-05T01:06:35.877Z,67.50
2023-05-05T01:09:19.475Z,67.60
2023-05-05T01:12:24.438Z,68.10
2023-05-05T01:15:18.613Z,68.80
2023-05-05T01:18:00.356Z,68.90
2023-05-05T01:20:48.773Z,68.60
2023-05-05T01:23:51.348Z,68.50
2023-05-05T01:26:51.970Z,68.50
2023-05-05T01:29:40.956Z,68.60
2023-05-05T01:32:11.745Z,69.10
2023-05-05T01:34:59.329Z,68.10
2023-05-05T01:37:42.771Z,68.20
2023-05-05T01:40:12.840Z,68.40
2023-05-05T01:42:43.583Z,67.90
2023-05-05T01:45:12.753Z,68.10
2023-05-05T01:47:41.918Z,68.40
2023-05-05T01:50:10.169Z,68.40
2023-05-05T01:52:39.154Z,69.10
2023-05-05T01:55:08.494Z,69.00
2023-05-05T01:57:36.825Z,68.90
2023-05-05T02:00:05.005Z,69.10
2023-05-05T02:02:45.190Z,69.20
2023-05-05T02:05:13.683Z,69.60
2023-05-05T02:07:42.551Z,69.90
2023-05-05T02:10:12.203Z,69.80
2023-05-05T02:12:42.576Z,70.00
2023-05-05T02:15:11.247Z,70.40
2023-05-05T02:17:43.069Z,70.80
2023-05-05T02:20:16.011Z,71.20
2023-05-05T02:22:43.424Z,71.00
2023-05-05T02:25:10.933Z,71.40
2023-05-05T02:27:42.950Z,71.50
2023-05-05T02:30:14.247Z,71.50
2023-05-05T02:32:49.584Z,71.80
2023-05-05T02:35:22.319Z,72.00
2023-05-05T02:38:03.082Z,72.30
2023-05-05T02:40:37.489Z,72.50
2023-05-05T02:43:09.736Z,72.60
2023-05-05T02:45:37.416Z,72.40
2023-05-05T02:48:07.696Z,72.40
2023-05-05T02:50:39.241Z,72.60
2023-05-05T02:53:15.256Z,72.80
2023-05-05T02:55:52.399Z,72.90
2023-05-05T02:58:46.147Z,72.50
2023-05-05T03:01:48.876Z,72.90
2023-05-05T03:04:39.583Z,73.20
2023-05-05T03:07:12.328Z,72.70
2023-05-05T03:09:46.281Z,72.90
2023-05-05T03:12:20.129Z,73.10
2023-05-05T03:14:58.982Z,73.00
2023-05-05T03:17:31.735Z,73.00
2023-05-05T03:20:02.933Z,73.00
2023-05-05T03:22:37.253Z,73.00
2023-05-05T03:25:06.873Z,73.00
2023-05-05T03:27:37.533Z,73.00
2023-05-05T03:30:07.002Z,72.80
2023-05-05T03:32:41.745Z,73.10
2023-05-05T03:35:10.877Z,73.00
2023-05-05T03:37:39.602Z,73.20
2023-05-05T03:40:08.280Z,73.50
2023-05-05T03:42:36.177Z,73.50
2023-05-05T03:45:05.127Z,73.80
2023-05-05T03:47:32.916Z,73.50
2023-05-05T03:50:00.994Z,73.50
2023-05-05T03:52:28.872Z,73.60
2023-05-05T03:54:57.756Z,73.80
2023-05-05T03:57:26.178Z,73.70
2023-05-05T03:59:54.815Z,73.60
2023-05-05T04:02:23.261Z,73.90
2023-05-05T04:04:50.853Z,73.50
2023-05-05T04:07:18.112Z,73.80
2023-05-05T04:09:45.573Z,73.80
2023-05-05T04:12:13.870Z,73.70
2023-05-05T04:14:41.452Z,73.80
2023-05-05T04:17:09.800Z,73.60
2023-05-05T04:19:37.092Z,73.60
2023-05-05T04:22:04.379Z,73.50
2023-05-05T04:24:32.031Z,73.60
2023-05-05T04:26:59.776Z,73.40
2023-05-05T04:29:28.925Z,73.10
2023-05-05T04:31:56.818Z,73.40
2023-05-05T04:34:24.799Z,73.10
2023-05-05T04:36:52.708Z,73.30
2023-05-05T04:39:21.541Z,73.20
2023-05-05T04:41:49.799Z,73.30
2023-05-05T04:44:17.083Z,73.50
2023-05-05T04:46:44.811Z,73.00
2023-05-05T04:49:12.156Z,72.90
2023-05-05T04:51:42.694Z,72.80
2023-05-05T04:54:10.040Z,72.70
2023-05-05T04:56:37.356Z,72.90
2023-05-05T04:59:04.607Z,72.40
2023-05-05T05:01:31.908Z,72.30
2023-05-05T05:03:59.246Z,72.30
2023-05-05T05:06:27.205Z,72.30
2023-05-05T05:08:54.498Z,71.90
2023-05-05T05:11:22.148Z,72.50
2023-05-05T05:13:50.060Z,72.10
2023-05-05T05:16:17.342Z,72.10
2023-05-05T05:18:44.735Z,71.50
2023-05-05T05:21:12.038Z,71.60
2023-05-05T05:23:39.304Z,71.20
2023-05-05T05:26:07.395Z,71.30
2023-05-05T05:28:35.898Z,71.00
2023-05-05T05:31:03.256Z,70.90
2023-05-05T05:33:30.881Z,70.60
2023-05-05T05:35:59.331Z,70.80
2023-05-05T05:38:28.542Z,70.80
2023-05-05T05:40:59.281Z,70.50
2023-05-05T05:43:26.585Z,70.30
2023-05-05T05:45:53.917Z,70.60
2023-05-05T05:48:24.758Z,70.30
2023-05-05T05:50:52.710Z,70.40
2023-05-05T05:53:20.143Z,69.30
2023-05-05T05:55:47.447Z,69.80
2023-05-05T05:58:17.125Z,69.90
2023-05-05T06:00:44.855Z,69.90
2023-05-05T06:03:12.621Z,69.90
2023-05-05T06:05:40.084Z,69.30
2023-05-05T06:08:07.724Z,68.40
2023-05-05T06:10:40.026Z,68.00
2023-05-05T06:13:11.765Z,66.90
2023-05-05T06:15:42.506Z,67.50
2023-05-05T06:18:10.901Z,67.30
2023-05-05T06:20:38.370Z,66.80
2023-05-05T06:23:05.863Z,67.50
2023-05-05T06:25:36.632Z,67.00
2023-05-05T06:28:05.594Z,67.10
2023-05-05T06:30:33.127Z,66.60
2023-05-05T06:33:00.369Z,65.90
2023-05-05T06:35:27.880Z,65.70
2023-05-05T06:37:55.157Z,66.50
2023-05-05T06:40:22.436Z,66.40
2023-05-05T06:42:49.749Z,65.50
2023-05-05T06:45:22.382Z,65.70
2023-05-05T06:47:49.666Z,65.70
2023-05-05T06:50:17.051Z,65.30
2023-05-05T06:52:44.400Z,65.80
2023-05-05T06:55:11.730Z,65.20
2023-05-05T06:57:39.055Z,65.00
2023-05-05T07:00:09.781Z,64.50
2023-05-05T07:02:38.221Z,63.10
2023-05-05T07:05:05.886Z,62.30
2023-05-05T07:07:33.127Z,63.40
2023-05-05T07:10:00.954Z,63.20
2023-05-05T07:12:31.119Z,62.90
2023-05-05T07:14:58.448Z,61.80
2023-05-05T07:17:25.911Z,62.70
2023-05-05T07:19:54.944Z,61.50
2023-05-05T07:22:22.196Z,61.70
2023-05-05T07:24:49.883Z,60.90
2023-05-05T07:27:22.612Z,61.10
2023-05-05T07:29:50.204Z,60.40
2023-05-05T07:32:17.607Z,60.70
2023-05-05T07:34:44.920Z,60.30
2023-05-05T07:37:12.706Z,60.00
2023-05-05T07:39:40.128Z,59.50
2023-05-05T07:42:07.789Z,59.10
2023-05-05T07:44:35.063Z,57.00
2023-05-05T07:47:02.530Z,56.20
2023-05-05T07:49:29.771Z,57.80
2023-05-05T07:51:57.081Z,57.20
2023-05-05T07:54:24.426Z,56.60
2023-05-05T07:56:51.692Z,56.60
2023-05-05T07:59:18.907Z,54.30
2023-05-05T08:01:46.198Z,55.70
2023-05-05T08:04:13.898Z,54.30
2023-05-05T08:06:41.279Z,54.10
2023-05-05T08:09:08.528Z,54.60
2023-05-05T08:11:35.854Z,55.20
2023-05-05T08:14:03.094Z,54.10
2023-05-05T08:16:30.413Z,54.70
2023-05-05T08:18:57.725Z,54.60
2023-05-05T08:21:24.996Z,55.70
2023-05-05T08:23:52.227Z,55.60
2023-05-05T08:26:19.434Z,55.50
2023-05-05T08:28:47.095Z,55.10
2023-05-05T08:31:14.388Z,53.70
2023-05-05T08:33:41.767Z,53.30
2023-05-05T08:36:09.203Z,53.00
2023-05-05T08:38:36.567Z,53.70
2023-05-05T08:41:04.053Z,53.50
2023-05-05T08:43:31.340Z,52.40
2023-05-05T08:45:59.292Z,51.10
2023-05-05T08:48:28.381Z,51.30
2023-05-05T08:51:00.300Z,51.90
2023-05-05T08:53:57.282Z,51.90
2023-05-05T08:56:32.017Z,51.20
2023-05-05T08:59:01.575Z,50.40
2023-05-05T09:01:29.962Z,50.00
2023-05-05T09:03:59.268Z,51.00
2023-05-05T09:06:27.364Z,50.30
2023-05-05T09:08:55.646Z,50.60
2023-05-05T09:11:24.244Z,49.90
2023-05-05T09:13:51.556Z,50.30
2023-05-05T09:16:18.829Z,48.10
2023-05-05T09:18:46.205Z,48.60
2023-05-05T09:21:24.777Z,48.30
2023-05-05T09:24:08.479Z,46.80
2023-05-05T09:26:39.091Z,48.40
2023-05-05T09:29:06.371Z,46.00
2023-05-05T09:31:35.103Z,46.10
2023-05-05T09:34:16.695Z,46.60
2023-05-05T09:36:47.912Z,46.00
2023-05-05T09:39:18.467Z,46.60
2023-05-05T09:41:47.521Z,47.40
2023-05-05T09:44:17.583Z,46.70
2023-05-05T09:46:51.532Z,46.70
2023-05-05T09:49:25.621Z,47.20
2023-05-05T09:51:53.784Z,46.90
2023-05-05T09:54:28.353Z,45.90
2023-05-05T09:56:57.382Z,44.60
2023-05-05T09:59:25.018Z,43.50
2023-05-05T10:01:52.413Z,45.00
2023-05-05T10:04:30.678Z,42.80
2023-05-05T10:06:59.140Z,43.60
2023-05-05T10:09:27.352Z,44.90
2023-05-05T10:11:57.833Z,45.10
2023-05-05T10:14:27.004Z,42.30
2023-05-05T10:16:55.730Z,44.10
2023-05-05T10:19:24.326Z,42.80
2023-05-05T10:21:52.760Z,42.90
2023-05-05T10:24:38.363Z,42.80
2023-05-05T10:27:15.120Z,43.70
2023-05-05T10:30:06.413Z,45.40
2023-05-05T10:35:16.461Z,41.80
2023-05-05T10:37:45.284Z,43.00
2023-05-05T10:40:13.848Z,42.10
2023-05-05T10:42:41.404Z,44.60
2023-05-05T10:45:09.533Z,42.70
2023-05-05T10:47:37.995Z,41.70
2023-05-05T10:50:23.920Z,42.30
2023-05-05T10:53:23.533Z,41.30
2023-05-05T10:56:14.731Z,41.90
2023-05-05T10:58:58.273Z,40.70
2023-05-05T11:01:35.374Z,40.80
2023-05-05T11:04:22.085Z,41.30
2023-05-05T11:07:21.595Z,41.90
2023-05-05T11:10:01.359Z,41.70
2023-05-05T11:12:29.656Z,39.80
2023-05-05T11:15:28.112Z,38.20
2023-05-05T11:17:57.249Z,38.70
2023-05-05T11:20:37.022Z,38.80
2023-05-05T11:23:04.623Z,37.80
2023-05-05T11:25:35.545Z,37.20
2023-05-05T11:28:17.723Z,38.30
2023-05-05T11:30:57.827Z,39.20
2023-05-05T11:33:32.822Z,37.60
2023-05-05T11:36:06.492Z,38.30
2023-05-05T11:38:56.446Z,38.20
2023-05-05T11:41:32.837Z,40.90
2023-05-05T11:44:13.045Z,39.60
2023-05-05T11:47:06.738Z,38.80
2023-05-05T11:49:38.578Z,40.20
2023-05-05T11:52:12.547Z,40.00
2023-05-05T11:54:47.814Z,40.00
2023-05-05T11:57:21.692Z,40.70
2023-05-05T11:59:56.510Z,40.50
2023-05-05T12:02:24.857Z,41.20
2023-05-05T12:04:54.090Z,41.20
2023-05-05T12:07:23.531Z,42.00
2023-05-05T12:09:50.934Z,41.10
2023-05-05T12:12:18.671Z,41.50
2023-05-05T12:14:52.885Z,42.90
2023-05-05T12:17:21.790Z,42.80
2023-05-05T12:19:53.962Z,43.20
2023-05-05T12:22:26.403Z,41.20
2023-05-05T12:24:58.201Z,41.80
2023-05-05T12:27:27.333Z,41.60
2023-05-05T12:29:56.957Z,43.10
2023-05-05T12:32:26.478Z,42.30
2023-05-05T12:34:57.280Z,42.50
2023-05-05T12:37:26.109Z,42.60
2023-05-05T12:39:56.762Z,42.80
2023-05-05T12:42:24.119Z,43.30
2023-05-05T12:44:51.412Z,42.50
2023-05-05T12:47:32.029Z,43.00
2023-05-05T12:50:00.781Z,43.00
2023-05-05T12:52:45.007Z,43.20
2023-05-05T12:55:13.298Z,43.60
2023-05-05T12:58:04.332Z,43.90
2023-05-05T13:00:31.726Z,43.80
2023-05-05T13:02:59.036Z,44.70
2023-05-05T13:05:33.721Z,44.70
2023-05-05T13:08:00.992Z,45.10
2023-05-05T13:10:28.463Z,45.20
2023-05-05T13:12:56.877Z,45.00
2023-05-05T13:15:25.023Z,45.70
2023-05-05T13:18:00.106Z,45.10
2023-05-05T13:20:28.132Z,46.10
2023-05-05T13:22:55.525Z,46.20
2023-05-05T13:25:23.245Z,45.50
2023-05-05T13:27:50.494Z,46.40
2023-05-05T13:30:17.744Z,47.00
2023-05-05T13:32:45.056Z,48.90
2023-05-05T13:35:14.765Z,49.20
2023-05-05T13:37:44.394Z,51.00
2023-05-05T13:40:13.360Z,51.30
2023-05-05T13:42:40.995Z,52.30
2023-05-05T13:45:09.326Z,53.40
2023-05-05T13:47:36.747Z,53.90
2023-05-05T13:50:04.753Z,56.50
2023-05-05T13:52:33.562Z,55.70
2023-05-05T13:55:01.181Z,55.40
2023-05-05T13:57:28.666Z,54.20
2023-05-05T13:59:56.344Z,55.30
2023-05-05T14:02:23.639Z,54.90
2023-05-05T14:04:51.003Z,57.00
2023-05-05T14:07:18.214Z,56.10
2023-05-05T14:09:45.508Z,53.80
2023-05-05T14:12:12.757Z,52.20
2023-05-05T14:14:40.170Z,53.10
2023-05-05T14:17:07.803Z,52.00
2023-05-05T14:19:35.152Z,51.30
2023-05-05T14:22:02.448Z,50.40
2023-05-05T14:24:29.741Z,51.00
2023-05-05T14:26:56.953Z,49.20
2023-05-05T14:29:24.195Z,47.80
2023-05-05T14:31:51.514Z,48.30
2023-05-05T14:34:18.784Z,45.90
2023-05-05T14:36:46.238Z,45.90
2023-05-05T14:39:13.510Z,46.60
2023-05-05T14:41:40.805Z,44.70
2023-05-05T14:44:08.154Z,44.70
2023-05-05T14:46:35.562Z,45.50
2023-05-05T14:49:02.832Z,45.90
2023-05-05T14:51:30.166Z,45.30
2023-05-05T14:53:57.587Z,45.60
2023-05-05T14:56:26.497Z,45.70
2023-05-05T14:58:53.750Z,46.50
2023-05-05T15:01:21.055Z,45.70
2023-05-05T15:03:48.422Z,46.90
2023-05-05T15:06:16.472Z,45.80
2023-05-05T15:08:43.706Z,47.30
2023-05-05T15:11:10.959Z,46.70
2023-05-05T15:13:40.162Z,46.20
2023-05-05T15:16:08.200Z,45.60
2023-05-05T15:18:35.672Z,46.10
2023-05-05T15:21:03.131Z,45.60
2023-05-05T15:23:30.445Z,45.50
2023-05-05T15:25:57.871Z,45.70
2023-05-05T15:28:25.217Z,46.00
2023-05-05T15:30:52.649Z,46.60
2023-05-05T15:33:19.884Z,46.10
2023-05-05T15:35:47.174Z,44.90
2023-05-05T15:38:14.422Z,45.70
2023-05-05T15:40:44.685Z,45.60
2023-05-05T15:43:13.509Z,46.60
2023-05-05T15:45:43.746Z,47.60
2023-05-05T15:48:12.258Z,47.20
2023-05-05T15:50:39.784Z,48.50
2023-05-05T15:53:07.029Z,47.90
2023-05-05T15:55:34.318Z,48.50
2023-05-05T15:58:01.882Z,49.10
2023-05-05T16:00:29.530Z,49.20
2023-05-05T16:02:56.833Z,48.60
2023-05-05T16:05:24.283Z,48.80
2023-05-05T16:07:53.565Z,47.40
2023-05-05T16:10:21.446Z,48.90
2023-05-05T16:12:49.208Z,49.50
2023-05-05T16:15:16.533Z,47.60
2023-05-05T16:17:45.519Z,47.70
2023-05-05T16:20:13.251Z,48.80
2023-05-05T16:22:40.548Z,46.60
2023-05-05T16:25:09.183Z,46.90
2023-05-05T16:27:37.526Z,46.10
2023-05-05T16:30:05.765Z,46.90
2023-05-05T16:32:34.228Z,46.40
2023-05-05T16:35:02.158Z,45.80
2023-05-05T16:37:29.450Z,45.50
2023-05-05T16:39:56.702Z,46.60
2023-05-05T16:42:24.215Z,46.10
2023-05-05T16:44:51.438Z,45.60
2023-05-05T16:47:18.720Z,46.70
2023-05-05T16:49:46.065Z,46.10
2023-05-05T16:52:13.587Z,46.50
2023-05-05T16:54:41.566Z,46.40
2023-05-05T16:57:08.910Z,47.50
2023-05-05T16:59:36.469Z,47.80
2023-05-05T17:02:03.880Z,47.70
2023-05-05T17:04:31.240Z,48.10
2023-05-05T17:06:58.469Z,47.60
2023-05-05T17:09:25.714Z,48.70
2023-05-05T17:11:52.992Z,48.40
2023-05-05T17:14:20.215Z,48.80
2023-05-05T17:16:47.686Z,48.70
2023-05-05T17:19:14.927Z,48.90
2023-05-05T17:21:43.166Z,49.60
2023-05-05T17:24:10.489Z,49.80
2023-05-05T17:26:38.806Z,50.60
2023-05-05T17:29:06.062Z,50.10
2023-05-05T17:31:33.357Z,50.10
2023-05-05T17:34:01.098Z,50.40
2023-05-05T17:36:28.543Z,50.50
2023-05-05T17:38:56.191Z,50.80
2023-05-05T17:41:25.604Z,51.20
2023-05-05T17:43:53.460Z,51.70
2023-05-05T17:46:20.827Z,52.10
2023-05-05T17:48:48.358Z,52.40
2023-05-05T17:51:15.855Z,53.40
2023-05-05T17:53:43.495Z,53.40
2023-05-05T17:56:10.857Z,53.10
2023-05-05T17:58:38.423Z,54.40
2023-05-05T18:01:06.294Z,54.70
2023-05-05T18:03:33.744Z,57.50
2023-05-05T18:06:02.536Z,58.30
2023-05-05T18:08:29.962Z,59.00
2023-05-05T18:10:57.328Z,58.50
2023-05-05T18:13:24.617Z,59.00
2023-05-05T18:15:51.910Z,59.10
2023-05-05T18:18:20.303Z,61.50
2023-05-05T18:20:47.985Z,62.50
2023-05-05T18:23:15.418Z,63.90
2023-05-05T18:25:47.524Z,64.80
2023-05-05T18:28:19.962Z,65.80
2023-05-05T18:30:48.676Z,66.10
2023-05-05T18:33:15.976Z,67.30
2023-05-05T18:35:43.430Z,68.60
2023-05-05T18:38:10.672Z,68.60
2023-05-05T18:40:37.905Z,69.70
2023-05-05T18:43:05.158Z,71.60
2023-05-05T18:45:32.585Z,71.60
2023-05-05T18:48:00.184Z,71.90
2023-05-05T18:50:28.107Z,72.20
2023-05-05T18:52:55.593Z,72.90
2023-05-05T18:55:23.098Z,72.90
2023-05-05T18:57:50.519Z,72.60
2023-05-05T19:00:21.010Z,71.90
2023-05-05T19:02:48.867Z,73.30
2023-05-05T19:05:16.424Z,73.90
2023-05-05T19:07:45.554Z,75.80
2023-05-05T19:10:13.904Z,75.90
2023-05-05T19:12:41.823Z,76.50
2023-05-05T19:15:09.491Z,76.80
2023-05-05T19:17:39.095Z,77.00
2023-05-05T19:20:06.889Z,77.90
2023-05-05T19:22:34.983Z,78.70
2023-05-05T19:25:02.603Z,78.20
2023-05-05T19:27:29.936Z,78.00
2023-05-05T19:29:57.291Z,78.40
2023-05-05T19:32:24.632Z,78.50
2023-05-05T19:34:54.343Z,78.40
2023-05-05T19:37:21.969Z,78.20
2023-05-05T19:39:49.763Z,78.40
2023-05-05T19:42:17.813Z,78.40
2023-05-05T19:44:45.256Z,79.00
2023-05-05T19:47:12.585Z,79.20
2023-05-05T19:49:39.915Z,79.20
2023-05-05T19:52:07.291Z,79.20
2023-05-05T19:54:36.582Z,79.90
2023-05-05T19:57:05.929Z,80.30
2023-05-05T19:59:33.970Z,80.00
2023-05-05T20:02:01.299Z,80.00
2023-05-05T20:04:28.720Z,79.70
2023-05-05T20:06:57.347Z,79.40
2023-05-05T20:09:24.559Z,79.30
2023-05-05T20:11:53.137Z,79.80
2023-05-05T20:14:21.854Z,79.90
2023-05-05T20:16:49.598Z,80.00
2023-05-05T20:19:18.117Z,80.20
2023-05-05T20:21:45.756Z,80.30
2023-05-05T20:24:13.035Z,80.30
2023-05-05T20:26:40.418Z,80.40
2023-05-05T20:29:07.692Z,80.30
2023-05-05T20:31:35.069Z,80.20
2023-05-05T20:34:02.529Z,80.40
2023-05-05T20:36:29.812Z,80.80
2023-05-05T20:38:57.037Z,80.90
2023-05-05T20:41:24.339Z,80.80
2023-05-05T20:43:51.800Z,80.70
2023-05-05T20:46:19.186Z,80.40
2023-05-05T20:48:46.632Z,80.60
2023-05-05T20:51:14.063Z,80.70
2023-05-05T20:53:41.651Z,81.00
2023-05-05T20:56:09.390Z,81.30
2023-05-05T20:58:36.656Z,81.10
2023-05-05T21:01:03.981Z,81.00
2023-05-05T21:03:31.393Z,81.30
2023-05-05T21:05:58.765Z,81.50
2023-05-05T21:08:26.827Z,81.60
2023-05-05T21:10:54.074Z,82.00
2023-05-05T21:13:21.525Z,82.20
2023-05-05T21:15:50.338Z,82.70
2023-05-05T21:18:17.718Z,82.90
2023-05-05T21:20:44.999Z,82.90
2023-05-05T21:23:12.360Z,82.80
2023-05-05T21:25:39.669Z,82.60
2023-05-05T21:28:06.970Z,82.60
2023-05-05T21:30:34.215Z,82.60
2023-05-05T21:33:01.854Z,82.30
2023-05-05T21:35:29.182Z,82.20
2023-05-05T21:37:56.606Z,81.70
2023-05-05T21:40:23.905Z,81.70
2023-05-05T21:42:51.158Z,81.50
2023-05-05T21:45:18.449Z,81.40
2023-05-05T21:47:45.798Z,81.40
2023-05-05T21:50:13.165Z,81.40
2023-05-05T21:52:41.411Z,81.50
2023-05-05T21:55:11.005Z,81.60
2023-05-05T21:57:38.432Z,81.60
2023-05-05T22:00:06.362Z,81.60
2023-05-05T22:02:39.675Z,81.20
2023-05-05T22:05:07.489Z,81.50
2023-05-05T22:07:34.933Z,81.90
2023-05-05T22:10:03.694Z,82.10
2023-05-05T22:12:30.927Z,82.20
2023-05-05T22:14:58.196Z,82.20
2023-05-05T22:17:25.515Z,82.40
2023-05-05T22:19:52.881Z,82.30
2023-05-05T22:22:20.151Z,81.50
2023-05-05T22:24:48.565Z,80.40
2023-05-05T22:27:15.755Z,79.80
2023-05-05T22:29:43.021Z,79.50
2023-05-05T22:32:10.337Z,79.60
2023-05-05T22:34:37.741Z,79.60
2023-05-05T22:37:05.013Z,79.70
2023-05-05T22:39:33.190Z,79.40
2023-05-05T22:42:01.689Z,79.10
2023-05-05T22:44:29.087Z,79.10
2023-05-05T22:46:56.508Z,79.00
2023-05-05T22:49:23.969Z,78.70
2023-05-05T22:51:51.911Z,78.50
2023-05-05T22:54:19.252Z,78.60
2023-05-05T22:56:47.090Z,78.60
2023-05-05T22:59:14.404Z,78.70
2023-05-05T23:01:41.846Z,78.60
2023-05-05T23:04:09.782Z,78.40
2023-05-05T23:06:37.692Z,78.30
2023-05-05T23:09:05.752Z,78.60
2023-05-05T23:11:33.938Z,78.60
2023-05-05T23:14:03.833Z,78.70
2023-05-05T23:16:32.862Z,78.80
2023-05-05T23:19:01.857Z,78.50
2023-05-05T23:21:32.076Z,78.60
2023-05-05T23:24:15.777Z,78.20
2023-05-05T23:27:01.348Z,78.50
2023-05-05T23:29:30.869Z,78.70
2023-05-05T23:32:01.499Z,79.00
2023-05-05T23:34:29.612Z,79.20
2023-05-05T23:36:57.547Z,79.20
2023-05-05T23:39:31.515Z,79.20
2023-05-05T23:42:02.539Z,79.20
2023-05-05T23:44:30.473Z,79.30
2023-05-05T23:47:02.132Z,79.40
2023-05-05T23:49:30.880Z,79.30
2023-05-05T23:51:58.971Z,79.30
2023-05-05T23:54:28.954Z,79.60
2023-05-05T23:56:57.393Z,79.50
2023-05-05T23:59:27.977Z,79.40
